sensor_id;sensor_type;location;lat;lon;timestamp;temperature;humidity
6740;DHT22;3407;49.882;10.920;2023-04-15T00:00:47;5.60;31.40
6740;DHT22;3407;49.882;10.920;2023-04-15T00:05:43;5.60;35.40
6740;DHT22;3407;49.882;10.920;2023-04-15T00:10:38;5.80;37.30
6740;DHT22;3407;49.882;10.920;2023-04-15T00:15:34;5.80;26.60
6740;DHT22;3407;49.882;10.920;2023-04-15T00:20:29;5.70;22.90
6740;DHT22;3407;49.882;10.920;2023-04-15T00:25:25;5.70;26.20
6740;DHT22;3407;49.882;10.920;2023-04-15T00:30:21;5.70;26.80
6740;DHT22;3407;49.882;10.920;2023-04-15T00:35:18;5.80;26.20
6740;DHT22;3407;49.882;10.920;2023-04-15T00:40:16;5.80;23.20
6740;DHT22;3407;49.882;10.920;2023-04-15T00:45:13;5.70;8.90
6740;DHT22;3407;49.882;10.920;2023-04-15T00:50:09;5.60;7.20
6740;DHT22;3407;49.882;10.920;2023-04-15T00:55:06;5.40;10.70
6740;DHT22;3407;49.882;10.920;2023-04-15T01:00:01;5.40;21.70
6740;DHT22;3407;49.882;10.920;2023-04-15T01:04:59;5.50;33.00
6740;DHT22;3407;49.882;10.920;2023-04-15T01:09:54;5.60;34.40
6740;DHT22;3407;49.882;10.920;2023-04-15T01:14:50;5.70;37.70
6740;DHT22;3407;49.882;10.920;2023-04-15T01:19:46;5.80;26.90
6740;DHT22;3407;49.882;10.920;2023-04-15T01:24:51;5.70;22.50
6740;DHT22;3407;49.882;10.920;2023-04-15T01:29:49;5.70;27.50
6740;DHT22;3407;49.882;10.920;2023-04-15T01:34:45;5.80;26.30
6740;DHT22;3407;49.882;10.920;2023-04-15T01:39:41;5.80;23.70
6740;DHT22;3407;49.882;10.920;2023-04-15T01:44:36;5.90;20.10
6740;DHT22;3407;49.882;10.920;2023-04-15T01:49:31;5.90;16.90
6740;DHT22;3407;49.882;10.920;2023-04-15T01:54:27;5.80;13.80
6740;DHT22;3407;49.882;10.920;2023-04-15T01:59:22;5.60;1.00
6740;DHT22;3407;49.882;10.920;2023-04-15T02:04:18;5.50;8.40
6740;DHT22;3407;49.882;10.920;2023-04-15T02:09:14;5.40;17.00
6740;DHT22;3407;49.882;10.920;2023-04-15T02:14:09;5.40;24.00
6740;DHT22;3407;49.882;10.920;2023-04-15T02:19:04;5.40;25.90
6740;DHT22;3407;49.882;10.920;2023-04-15T02:24:00;5.50;27.70
6740;DHT22;3407;49.882;10.920;2023-04-15T02:28:56;5.50;29.30
6740;DHT22;3407;49.882;10.920;2023-04-15T02:33:52;5.50;32.00
6740;DHT22;3407;49.882;10.920;2023-04-15T02:38:47;5.60;33.40
6740;DHT22;3407;49.882;10.920;2023-04-15T02:43:43;5.60;40.40
6740;DHT22;3407;49.882;10.920;2023-04-15T02:48:38;5.80;44.00
6740;DHT22;3407;49.882;10.920;2023-04-15T02:53:34;5.90;44.10
6740;DHT22;3407;49.882;10.920;2023-04-15T02:58:30;6.00;43.80
6740;DHT22;3407;49.882;10.920;2023-04-15T03:03:26;6.00;39.60
6740;DHT22;3407;49.882;10.920;2023-04-15T03:08:22;6.10;38.70
6740;DHT22;3407;49.882;10.920;2023-04-15T03:13:18;6.10;36.50
6740;DHT22;3407;49.882;10.920;2023-04-15T03:18:14;6.20;34.90
6740;DHT22;3407;49.882;10.920;2023-04-15T03:23:11;6.20;32.10
6740;DHT22;3407;49.882;10.920;2023-04-15T03:28:06;6.20;28.90
6740;DHT22;3407;49.882;10.920;2023-04-15T03:33:02;6.10;7.90
6740;DHT22;3407;49.882;10.920;2023-04-15T03:37:57;5.90;12.70
6740;DHT22;3407;49.882;10.920;2023-04-15T03:42:53;5.80;13.60
6740;DHT22;3407;49.882;10.920;2023-04-15T03:47:48;5.80;14.10
6740;DHT22;3407;49.882;10.920;2023-04-15T03:52:44;5.80;14.30
6740;DHT22;3407;49.882;10.920;2023-04-15T03:57:40;5.90;23.80
6740;DHT22;3407;49.882;10.920;2023-04-15T04:02:36;6.00;23.80
6740;DHT22;3407;49.882;10.920;2023-04-15T04:07:31;6.00;25.70
6740;DHT22;3407;49.882;10.920;2023-04-15T04:12:27;6.10;26.10
6740;DHT22;3407;49.882;10.920;2023-04-15T04:17:22;6.30;21.70
6740;DHT22;3407;49.882;10.920;2023-04-15T04:22:22;6.30;16.90
6740;DHT22;3407;49.882;10.920;2023-04-15T04:27:18;6.30;8.60
6740;DHT22;3407;49.882;10.920;2023-04-15T04:32:13;6.30;12.50
6740;DHT22;3407;49.882;10.920;2023-04-15T04:37:09;6.30;14.60
6740;DHT22;3407;49.882;10.920;2023-04-15T04:42:05;6.40;13.30
6740;DHT22;3407;49.882;10.920;2023-04-15T04:47:01;6.50;12.80
6740;DHT22;3407;49.882;10.920;2023-04-15T04:51:56;6.60;10.50
6740;DHT22;3407;49.882;10.920;2023-04-15T04:56:52;6.60;3.70
6740;DHT22;3407;49.882;10.920;2023-04-15T05:01:48;6.60;1.00
6740;DHT22;3407;49.882;10.920;2023-04-15T05:06:43;6.70;1.00
6740;DHT22;3407;49.882;10.920;2023-04-15T05:11:39;6.70;1.00
6740;DHT22;3407;49.882;10.920;2023-04-15T05:16:34;6.80;1.00
6740;DHT22;3407;49.882;10.920;2023-04-15T05:21:30;6.90;1.00
6740;DHT22;3407;49.882;10.920;2023-04-15T05:26:26;7.00;1.00
6740;DHT22;3407;49.882;10.920;2023-04-15T05:31:21;7.10;1.00
6740;DHT22;3407;49.882;10.920;2023-04-15T05:36:17;7.20;1.00
6740;DHT22;3407;49.882;10.920;2023-04-15T05:41:12;7.30;1.00
6740;DHT22;3407;49.882;10.920;2023-04-15T05:46:10;7.40;1.00
6740;DHT22;3407;49.882;10.920;2023-04-15T05:51:05;7.40;1.00
6740;DHT22;3407;49.882;10.920;2023-04-15T05:56:01;7.40;1.00
6740;DHT22;3407;49.882;10.920;2023-04-15T06:00:56;7.40;1.00
6740;DHT22;3407;49.882;10.920;2023-04-15T06:05:52;7.30;1.00
6740;DHT22;3407;49.882;10.920;2023-04-15T06:10:48;7.20;1.00
6740;DHT22;3407;49.882;10.920;2023-04-15T06:15:44;7.20;1.00
6740;DHT22;3407;49.882;10.920;2023-04-15T06:20:39;7.10;1.00
6740;DHT22;3407;49.882;10.920;2023-04-15T06:25:36;7.10;1.00
6740;DHT22;3407;49.882;10.920;2023-04-15T06:30:31;7.10;1.00
6740;DHT22;3407;49.882;10.920;2023-04-15T06:35:27;7.10;13.40
6740;DHT22;3407;49.882;10.920;2023-04-15T06:40:23;7.00;17.00
6740;DHT22;3407;49.882;10.920;2023-04-15T06:45:18;7.00;26.00
6740;DHT22;3407;49.882;10.920;2023-04-15T06:50:14;7.10;29.40
6740;DHT22;3407;49.882;10.920;2023-04-15T06:55:09;7.10;38.90
6740;DHT22;3407;49.882;10.920;2023-04-15T07:00:05;7.30;46.00
6740;DHT22;3407;49.882;10.920;2023-04-15T07:05:01;7.30;49.60
6740;DHT22;3407;49.882;10.920;2023-04-15T07:09:57;7.30;50.60
6740;DHT22;3407;49.882;10.920;2023-04-15T07:14:52;7.30;48.10
6740;DHT22;3407;49.882;10.920;2023-04-15T07:19:48;7.20;53.00
6740;DHT22;3407;49.882;10.920;2023-04-15T07:24:45;7.30;58.50
6740;DHT22;3407;49.882;10.920;2023-04-15T07:29:40;7.30;56.80
6740;DHT22;3407;49.882;10.920;2023-04-15T07:34:36;7.30;60.50
6740;DHT22;3407;49.882;10.920;2023-04-15T07:39:32;7.40;62.10
6740;DHT22;3407;49.882;10.920;2023-04-15T07:44:27;7.40;62.40
6740;DHT22;3407;49.882;10.920;2023-04-15T07:49:23;7.50;62.50
6740;DHT22;3407;49.882;10.920;2023-04-15T07:54:19;7.50;59.90
6740;DHT22;3407;49.882;10.920;2023-04-15T07:59:15;7.50;63.80
6740;DHT22;3407;49.882;10.920;2023-04-15T08:04:12;7.60;63.90
6740;DHT22;3407;49.882;10.920;2023-04-15T08:09:07;7.60;64.80
6740;DHT22;3407;49.882;10.920;2023-04-15T08:14:03;7.70;71.20
6740;DHT22;3407;49.882;10.920;2023-04-15T08:18:58;7.60;60.90
6740;DHT22;3407;49.882;10.920;2023-04-15T08:23:54;7.60;62.50
6740;DHT22;3407;49.882;10.920;2023-04-15T08:28:51;7.60;71.00
6740;DHT22;3407;49.882;10.920;2023-04-15T08:33:46;7.60;67.00
6740;DHT22;3407;49.882;10.920;2023-04-15T08:38:43;7.60;65.70
6740;DHT22;3407;49.882;10.920;2023-04-15T08:43:48;7.60;69.40
6740;DHT22;3407;49.882;10.920;2023-04-15T08:48:47;7.60;68.00
6740;DHT22;3407;49.882;10.920;2023-04-15T08:53:44;7.60;59.30
6740;DHT22;3407;49.882;10.920;2023-04-15T08:58:45;7.50;56.60
6740;DHT22;3407;49.882;10.920;2023-04-15T09:03:41;7.40;56.40
6740;DHT22;3407;49.882;10.920;2023-04-15T09:08:37;7.40;62.20
6740;DHT22;3407;49.882;10.920;2023-04-15T09:13:33;7.50;72.40
6740;DHT22;3407;49.882;10.920;2023-04-15T09:18:33;7.70;74.70
6740;DHT22;3407;49.882;10.920;2023-04-15T09:23:28;7.80;80.80
6740;DHT22;3407;49.882;10.920;2023-04-15T09:28:25;7.90;76.20
6740;DHT22;3407;49.882;10.920;2023-04-15T09:33:21;8.00;71.40
6740;DHT22;3407;49.882;10.920;2023-04-15T09:38:16;8.10;73.90
6740;DHT22;3407;49.882;10.920;2023-04-15T09:43:12;8.10;67.30
6740;DHT22;3407;49.882;10.920;2023-04-15T09:48:16;8.20;71.60
6740;DHT22;3407;49.882;10.920;2023-04-15T09:53:16;8.30;65.00
6740;DHT22;3407;49.882;10.920;2023-04-15T09:58:25;8.50;67.50
6740;DHT22;3407;49.882;10.920;2023-04-15T10:03:26;8.70;64.60
6740;DHT22;3407;49.882;10.920;2023-04-15T10:08:24;8.70;52.60
6740;DHT22;3407;49.882;10.920;2023-04-15T10:13:23;8.70;43.90
6740;DHT22;3407;49.882;10.920;2023-04-15T10:18:19;8.60;45.00
6740;DHT22;3407;49.882;10.920;2023-04-15T10:23:17;8.50;43.60
6740;DHT22;3407;49.882;10.920;2023-04-15T10:28:15;8.40;52.40
6740;DHT22;3407;49.882;10.920;2023-04-15T10:33:11;8.40;61.40
6740;DHT22;3407;49.882;10.920;2023-04-15T10:38:39;8.40;62.10
6740;DHT22;3407;49.882;10.920;2023-04-15T10:43:36;8.20;55.70
6740;DHT22;3407;49.882;10.920;2023-04-15T10:48:31;8.20;67.10
6740;DHT22;3407;49.882;10.920;2023-04-15T10:53:27;8.20;67.60
6740;DHT22;3407;49.882;10.920;2023-04-15T10:58:24;8.30;80.70
6740;DHT22;3407;49.882;10.920;2023-04-15T11:03:39;9.00;86.60
6740;DHT22;3407;49.882;10.920;2023-04-15T11:08:57;9.90;70.90
6740;DHT22;3407;49.882;10.920;2023-04-15T11:13:55;10.10;14.90
6740;DHT22;3407;49.882;10.920;2023-04-15T11:18:54;10.00;1.00
6740;DHT22;3407;49.882;10.920;2023-04-15T11:23:50;9.60;1.00
6740;DHT22;3407;49.882;10.920;2023-04-15T11:28:46;9.50;1.00
6740;DHT22;3407;49.882;10.920;2023-04-15T11:33:58;9.20;1.00
6740;DHT22;3407;49.882;10.920;2023-04-15T11:38:56;9.10;4.90
6740;DHT22;3407;49.882;10.920;2023-04-15T11:43:52;9.20;10.00
6740;DHT22;3407;49.882;10.920;2023-04-15T11:48:47;9.20;17.30
6740;DHT22;3407;49.882;10.920;2023-04-15T11:53:44;9.30;19.50
6740;DHT22;3407;49.882;10.920;2023-04-15T11:58:40;9.10;1.00
6740;DHT22;3407;49.882;10.920;2023-04-15T12:03:43;9.30;23.90
6740;DHT22;3407;49.882;10.920;2023-04-15T12:13:49;9.40;1.00
6740;DHT22;3407;49.882;10.920;2023-04-15T12:18:56;9.30;1.00
6740;DHT22;3407;49.882;10.920;2023-04-15T12:23:54;9.30;4.80
6740;DHT22;3407;49.882;10.920;2023-04-15T12:28:59;9.50;3.80
6740;DHT22;3407;49.882;10.920;2023-04-15T12:33:56;9.60;1.00
6740;DHT22;3407;49.882;10.920;2023-04-15T12:38:52;9.90;1.00
6740;DHT22;3407;49.882;10.920;2023-04-15T12:43:48;10.10;1.00
6740;DHT22;3407;49.882;10.920;2023-04-15T12:48:43;10.30;1.00
6740;DHT22;3407;49.882;10.920;2023-04-15T12:53:39;10.40;1.00
6740;DHT22;3407;49.882;10.920;2023-04-15T12:58:34;10.40;1.00
6740;DHT22;3407;49.882;10.920;2023-04-15T13:03:30;10.50;1.00
6740;DHT22;3407;49.882;10.920;2023-04-15T13:08:26;10.40;1.00
6740;DHT22;3407;49.882;10.920;2023-04-15T13:13:21;10.20;1.00
6740;DHT22;3407;49.882;10.920;2023-04-15T13:18:17;10.10;1.00
6740;DHT22;3407;49.882;10.920;2023-04-15T13:23:12;10.00;1.00
6740;DHT22;3407;49.882;10.920;2023-04-15T13:28:10;10.00;1.00
6740;DHT22;3407;49.882;10.920;2023-04-15T13:33:06;10.00;1.00
6740;DHT22;3407;49.882;10.920;2023-04-15T13:38:02;9.90;1.00
6740;DHT22;3407;49.882;10.920;2023-04-15T13:42:57;9.80;1.00
6740;DHT22;3407;49.882;10.920;2023-04-15T13:47:55;9.70;1.00
6740;DHT22;3407;49.882;10.920;2023-04-15T13:52:51;9.60;1.00
6740;DHT22;3407;49.882;10.920;2023-04-15T13:57:47;9.50;1.00
6740;DHT22;3407;49.882;10.920;2023-04-15T14:02:42;9.40;1.00
6740;DHT22;3407;49.882;10.920;2023-04-15T14:07:38;9.30;1.00
6740;DHT22;3407;49.882;10.920;2023-04-15T14:12:33;9.40;1.00
6740;DHT22;3407;49.882;10.920;2023-04-15T14:17:29;9.40;1.00
6740;DHT22;3407;49.882;10.920;2023-04-15T14:22:25;9.30;1.00
6740;DHT22;3407;49.882;10.920;2023-04-15T14:27:20;9.30;1.00
6740;DHT22;3407;49.882;10.920;2023-04-15T14:32:16;9.40;1.00
6740;DHT22;3407;49.882;10.920;2023-04-15T14:37:12;9.30;1.00
6740;DHT22;3407;49.882;10.920;2023-04-15T14:42:08;9.30;1.00
6740;DHT22;3407;49.882;10.920;2023-04-15T14:47:04;9.30;1.00
6740;DHT22;3407;49.882;10.920;2023-04-15T14:52:00;9.20;1.00
6740;DHT22;3407;49.882;10.920;2023-04-15T14:56:55;9.20;1.00
6740;DHT22;3407;49.882;10.920;2023-04-15T15:01:52;9.10;1.00
6740;DHT22;3407;49.882;10.920;2023-04-15T15:06:48;9.10;6.20
6740;DHT22;3407;49.882;10.920;2023-04-15T15:11:43;9.10;15.70
6740;DHT22;3407;49.882;10.920;2023-04-15T15:16:39;9.10;30.20
6740;DHT22;3407;49.882;10.920;2023-04-15T15:21:35;9.10;36.90
6740;DHT22;3407;49.882;10.920;2023-04-15T15:26:31;9.10;42.40
6740;DHT22;3407;49.882;10.920;2023-04-15T15:31:27;9.10;49.40
6740;DHT22;3407;49.882;10.920;2023-04-15T15:36:22;9.20;55.30
6740;DHT22;3407;49.882;10.920;2023-04-15T15:41:18;9.20;51.20
6740;DHT22;3407;49.882;10.920;2023-04-15T15:46:14;9.10;51.90
6740;DHT22;3407;49.882;10.920;2023-04-15T15:51:09;9.00;56.20
6740;DHT22;3407;49.882;10.920;2023-04-15T15:56:05;8.90;57.20
6740;DHT22;3407;49.882;10.920;2023-04-15T16:01:00;8.90;64.20
6740;DHT22;3407;49.882;10.920;2023-04-15T16:05:56;8.90;63.00
6740;DHT22;3407;49.882;10.920;2023-04-15T16:10:52;8.90;63.60
6740;DHT22;3407;49.882;10.920;2023-04-15T16:15:48;8.90;62.80
6740;DHT22;3407;49.882;10.920;2023-04-15T16:20:46;8.90;69.50
6740;DHT22;3407;49.882;10.920;2023-04-15T16:25:43;9.00;76.60
6740;DHT22;3407;49.882;10.920;2023-04-15T16:30:39;9.10;67.70
6740;DHT22;3407;49.882;10.920;2023-04-15T16:35:35;8.90;65.10
6740;DHT22;3407;49.882;10.920;2023-04-15T16:40:31;8.90;70.60
6740;DHT22;3407;49.882;10.920;2023-04-15T16:45:27;8.80;71.40
6740;DHT22;3407;49.882;10.920;2023-04-15T16:50:22;8.80;75.90
6740;DHT22;3407;49.882;10.920;2023-04-15T16:55:18;8.80;79.70
6740;DHT22;3407;49.882;10.920;2023-04-15T17:00:14;8.80;81.70
6740;DHT22;3407;49.882;10.920;2023-04-15T17:05:10;8.80;83.40
6740;DHT22;3407;49.882;10.920;2023-04-15T17:10:06;8.60;81.60
6740;DHT22;3407;49.882;10.920;2023-04-15T17:15:01;8.50;83.00
6740;DHT22;3407;49.882;10.920;2023-04-15T17:19:57;8.50;84.80
6740;DHT22;3407;49.882;10.920;2023-04-15T17:24:53;8.40;89.40
6740;DHT22;3407;49.882;10.920;2023-04-15T17:29:48;8.40;91.20
6740;DHT22;3407;49.882;10.920;2023-04-15T17:34:44;8.30;91.70
6740;DHT22;3407;49.882;10.920;2023-04-15T17:39:39;8.30;92.80
6740;DHT22;3407;49.882;10.920;2023-04-15T17:44:35;8.20;93.60
6740;DHT22;3407;49.882;10.920;2023-04-15T17:49:30;8.20;94.60
6740;DHT22;3407;49.882;10.920;2023-04-15T17:54:29;8.20;96.60
6740;DHT22;3407;49.882;10.920;2023-04-15T17:59:24;8.20;97.80
6740;DHT22;3407;49.882;10.920;2023-04-15T18:04:20;8.30;98.70
6740;DHT22;3407;49.882;10.920;2023-04-15T18:09:16;8.30;98.80
6740;DHT22;3407;49.882;10.920;2023-04-15T18:14:11;8.20;99.40
6740;DHT22;3407;49.882;10.920;2023-04-15T18:19:07;8.20;99.40
6740;DHT22;3407;49.882;10.920;2023-04-15T18:24:04;8.20;99.90
6740;DHT22;3407;49.882;10.920;2023-04-15T18:29:00;8.20;99.90
6740;DHT22;3407;49.882;10.920;2023-04-15T18:33:55;8.20;99.90
6740;DHT22;3407;49.882;10.920;2023-04-15T18:38:51;8.20;99.90
6740;DHT22;3407;49.882;10.920;2023-04-15T18:43:46;8.20;99.90
6740;DHT22;3407;49.882;10.920;2023-04-15T18:48:42;8.20;99.90
6740;DHT22;3407;49.882;10.920;2023-04-15T18:53:37;8.20;99.90
6740;DHT22;3407;49.882;10.920;2023-04-15T18:58:33;8.10;99.90
6740;DHT22;3407;49.882;10.920;2023-04-15T19:03:28;8.10;99.90
6740;DHT22;3407;49.882;10.920;2023-04-15T19:08:24;8.10;99.90
6740;DHT22;3407;49.882;10.920;2023-04-15T19:13:20;8.10;99.90
6740;DHT22;3407;49.882;10.920;2023-04-15T19:18:16;8.20;99.90
6740;DHT22;3407;49.882;10.920;2023-04-15T19:23:12;8.10;99.90
6740;DHT22;3407;49.882;10.920;2023-04-15T19:28:08;8.10;99.90
6740;DHT22;3407;49.882;10.920;2023-04-15T19:33:03;8.10;99.90
6740;DHT22;3407;49.882;10.920;2023-04-15T19:37:59;8.10;99.90
6740;DHT22;3407;49.882;10.920;2023-04-15T19:42:54;8.20;99.90
6740;DHT22;3407;49.882;10.920;2023-04-15T19:47:50;8.10;99.90
6740;DHT22;3407;49.882;10.920;2023-04-15T19:52:46;8.10;99.90
6740;DHT22;3407;49.882;10.920;2023-04-15T19:57:42;8.10;99.90
6740;DHT22;3407;49.882;10.920;2023-04-15T20:02:37;8.00;99.90
6740;DHT22;3407;49.882;10.920;2023-04-15T20:07:33;8.10;99.90
6740;DHT22;3407;49.882;10.920;2023-04-15T20:12:28;8.00;99.90
6740;DHT22;3407;49.882;10.920;2023-04-15T20:17:25;8.00;99.90
6740;DHT22;3407;49.882;10.920;2023-04-15T20:22:20;8.00;99.90
6740;DHT22;3407;49.882;10.920;2023-04-15T20:27:16;8.00;99.90
6740;DHT22;3407;49.882;10.920;2023-04-15T20:32:12;8.10;99.90
6740;DHT22;3407;49.882;10.920;2023-04-15T20:37:07;8.10;99.90
6740;DHT22;3407;49.882;10.920;2023-04-15T20:42:03;8.10;99.90
6740;DHT22;3407;49.882;10.920;2023-04-15T20:46:58;8.10;99.90
6740;DHT22;3407;49.882;10.920;2023-04-15T20:51:54;8.10;99.90
6740;DHT22;3407;49.882;10.920;2023-04-15T20:56:49;8.10;99.90
6740;DHT22;3407;49.882;10.920;2023-04-15T21:01:45;8.10;99.90
6740;DHT22;3407;49.882;10.920;2023-04-15T21:06:40;8.10;99.90
6740;DHT22;3407;49.882;10.920;2023-04-15T21:11:36;8.10;99.90
6740;DHT22;3407;49.882;10.920;2023-04-15T21:16:32;8.10;99.90
6740;DHT22;3407;49.882;10.920;2023-04-15T21:21:28;8.10;99.90
6740;DHT22;3407;49.882;10.920;2023-04-15T21:26:23;8.20;99.90
6740;DHT22;3407;49.882;10.920;2023-04-15T21:31:19;8.20;99.90
6740;DHT22;3407;49.882;10.920;2023-04-15T21:36:16;8.20;99.90
6740;DHT22;3407;49.882;10.920;2023-04-15T21:41:11;8.20;99.90
6740;DHT22;3407;49.882;10.920;2023-04-15T21:46:07;8.20;99.90
6740;DHT22;3407;49.882;10.920;2023-04-15T21:51:03;8.30;99.90
6740;DHT22;3407;49.882;10.920;2023-04-15T21:55:58;8.30;99.90
6740;DHT22;3407;49.882;10.920;2023-04-15T22:00:54;8.30;99.90
6740;DHT22;3407;49.882;10.920;2023-04-15T22:05:54;8.30;99.90
6740;DHT22;3407;49.882;10.920;2023-04-15T22:10:50;8.20;99.90
6740;DHT22;3407;49.882;10.920;2023-04-15T22:15:45;8.20;99.90
6740;DHT22;3407;49.882;10.920;2023-04-15T22:20:41;8.30;99.90
6740;DHT22;3407;49.882;10.920;2023-04-15T22:25:36;8.30;99.90
6740;DHT22;3407;49.882;10.920;2023-04-15T22:30:36;8.30;99.90
6740;DHT22;3407;49.882;10.920;2023-04-15T22:35:32;8.20;99.90
6740;DHT22;3407;49.882;10.920;2023-04-15T22:40:29;8.30;99.90
6740;DHT22;3407;49.882;10.920;2023-04-15T22:45:24;8.30;99.90
6740;DHT22;3407;49.882;10.920;2023-04-15T22:50:20;8.30;99.90
6740;DHT22;3407;49.882;10.920;2023-04-15T22:55:16;8.30;99.90
6740;DHT22;3407;49.882;10.920;2023-04-15T23:00:12;8.30;99.90
6740;DHT22;3407;49.882;10.920;2023-04-15T23:05:07;8.30;99.90
6740;DHT22;3407;49.882;10.920;2023-04-15T23:10:03;8.30;99.90
6740;DHT22;3407;49.882;10.920;2023-04-15T23:14:59;8.30;99.90
6740;DHT22;3407;49.882;10.920;2023-04-15T23:19:55;8.30;99.90
6740;DHT22;3407;49.882;10.920;2023-04-15T23:24:50;8.30;99.90
6740;DHT22;3407;49.882;10.920;2023-04-15T23:29:46;8.30;99.90
6740;DHT22;3407;49.882;10.920;2023-04-15T23:34:41;8.20;99.90
6740;DHT22;3407;49.882;10.920;2023-04-15T23:39:37;8.30;99.90
6740;DHT22;3407;49.882;10.920;2023-04-15T23:44:32;8.30;99.90
6740;DHT22;3407;49.882;10.920;2023-04-15T23:49:28;8.30;99.90
6740;DHT22;3407;49.882;10.920;2023-04-15T23:54:23;8.30;99.90
6740;DHT22;3407;49.882;10.920;2023-04-15T23:59:19;8.20;99.90
